Dauphin Barker Airport
CYDN : now visible

Aeroporto :











RITROVATECI SU...

 
LOGIN :

Iscrizione | Disclaimer

   EN    FR    IT 

 









Sommario :    VFR   VFR Marginale   IFR   IFR Intensivo   IFR Molto Intensivo
Visibilità : 
Base nubi : 
>= 8 km
>= 3000ft
5 / 8 km
1000 / 3000 ft
1500m / 5 km
500 / 1000 ft
800 / 1500m
200 / 500 ft
< 800m
< 200 ft
Simboli :   Temporali  Nebbia  Neve Forte  Precipitazioni Forti  Vento > 20 kt






- Altitudine del aeroporto : 999 ft
- Codice IATA : YDN


CYDN - Dauphin Barker

ULTIMO METAR :
  • 151600Z AUTO 26011KT 9SM -SN BKN028 OVC035 M12/M15 A2972 RMK SLP099

METARs OBSOLETI :
  • 151528Z AUTO 25011KT 9SM -SN SCT019 OVC026 M12/M15 A2971 RMK SLP097
  • 151500Z AUTO 26009KT 9SM -SN OVC018 M13/M16 A2971 RMK SLP096
  • 151454Z AUTO 26010KT 9SM -SN BKN020 OVC065 M13/M16 A2971 RMK SLP096
  • 151440Z AUTO 26009G15KT 9SM -SN BKN020 BKN065 OVC076 M14/M17 A2971 RMK SLP096
  • 151400Z AUTO 25010G19KT 9SM OVC075 M13/M15 A2969 RMK SLP091

TAF TAF CYDN
Valido dal 15 a 12 ore il 16 a 00 ore UTC


151140Z 1512/1524 22012KT P6SM FEW020
TEMPO 1512/1514 BKN020
FM151400 24012KT P6SM FEW008 SCT020 BKN040
TEMPO 1514/1518 4SM -SN BR SCT008 OVC020
FM151800 27015G25KT P6SM BKN025
TEMPO 1518/1524 P6SM -SN BKN020 RMK FCST BASED ON AUTO OBS. NXT FCST BY 151800Z



MetMap, La meteo Aeronautica in un colpo d'occhio ! - Copyright ORBIFLY Dicembre 2007 - Disclaimer

ORBIFLY MET'MAP TEAM :

Programmazione e sviluppo : Alexandra Zaïnal
Concezione : Baudouin d'Aumeries
Aiuto per la programmazione : Marc-Olivier Méhu
Supporto tecnico e logistico : Manuel Goepfert
Aiuto per la traduzione : Arnaldo La Scala

Contatto : metmap@orbifly.com




FONTI E CREDITI :

   NOAA       Earth
Advisory